Time;durP1;ratioP1;P1;durP2;ratioP2;P2;SDS_P1;SDS_P2;PMS_P1;PMS_P2;Temp;Humidity;BMP_temperature;BMP_pressure;BME280_temperature;BME280_humidity;BME280_pressure;Samples;Min_cycle;Max_cycle;Signal;HPM_P1;HPM_P2
2022/07/21 00:02:00;;;;;;;56.17;26.80;;;21.10;99.90;;;;;;4960381;28;20082;-55
2022/07/21 00:04:27;;;;;;;41.45;21.52;;;21.00;99.90;;;;;;4960955;28;20031;-50
2022/07/21 00:06:52;;;;;;;37.30;21.45;;;21.00;99.90;;;;;;4962226;29;20019;-47
2022/07/21 00:09:18;;;;;;;34.42;20.60;;;20.90;99.90;;;;;;4960384;29;20027;-50
2022/07/21 00:11:44;;;;;;;49.88;25.25;;;21.10;99.90;;;;;;4958578;28;20024;-49
2022/07/21 00:14:10;;;;;;;40.95;23.77;;;21.00;99.90;;;;;;4958942;28;20042;-51
2022/07/21 00:16:37;;;;;;;38.85;22.92;;;20.90;99.90;;;;;;4958873;28;20046;-53
2022/07/21 00:19:03;;;;;;;38.15;22.08;;;20.90;99.90;;;;;;4959587;28;20026;-47
2022/07/21 00:21:29;;;;;;;42.03;24.08;;;21.00;99.90;;;;;;4958484;28;20023;-53
2022/07/21 00:23:54;;;;;;;36.95;21.80;;;21.10;99.90;;;;;;4957713;28;20046;-51
2022/07/21 00:26:20;;;;;;;41.20;24.15;;;21.10;99.90;;;;;;4956556;28;20033;-49
2022/07/21 00:28:46;;;;;;;45.30;24.52;;;21.10;99.90;;;;;;4956478;28;20121;-51
2022/07/21 00:31:12;;;;;;;37.15;21.65;;;21.10;99.90;;;;;;4956094;28;20027;-46
2022/07/21 00:33:38;;;;;;;37.53;23.35;;;21.10;99.90;;;;;;4972991;28;20027;-52
2022/07/21 00:36:03;;;;;;;32.83;20.20;;;21.10;99.90;;;;;;4957930;28;20031;-48
2022/07/21 00:38:29;;;;;;;37.25;20.30;;;21.10;99.90;;;;;;4956934;28;20027;-48
2022/07/21 00:40:55;;;;;;;32.53;21.40;;;21.20;99.90;;;;;;4958235;28;20027;-53
2022/07/21 00:43:21;;;;;;;28.20;18.15;;;21.20;99.90;;;;;;4957055;28;20030;-49
2022/07/21 00:45:46;;;;;;;25.25;16.85;;;21.20;99.90;;;;;;4962344;28;20087;-47
2022/07/21 00:48:12;;;;;;;24.60;17.25;;;21.20;99.90;;;;;;4956913;28;20542;-46
2022/07/21 00:50:38;;;;;;;27.25;16.80;;;21.30;99.90;;;;;;4956822;28;20082;-51
2022/07/21 00:53:03;;;;;;;31.98;16.80;;;21.40;99.90;;;;;;4955586;28;20036;-46
2022/07/21 00:55:29;;;;;;;29.98;17.90;;;21.50;99.90;;;;;;4955844;28;20034;-47
2022/07/21 00:57:55;;;;;;;21.55;15.68;;;21.50;99.90;;;;;;4955594;28;20024;-47
2022/07/21 01:00:24;;;;;;;23.60;15.93;;;21.60;99.90;;;;;;4955427;28;20032;-47
2022/07/21 01:02:50;;;;;;;26.55;16.10;;;21.70;99.90;;;;;;4956653;28;20027;-49
2022/07/21 01:05:16;;;;;;;24.17;16.30;;;21.80;99.90;;;;;;4956673;28;20026;-50
2022/07/21 01:07:43;;;;;;;25.95;16.67;;;21.80;99.90;;;;;;4955679;28;20511;-54
2022/07/21 01:10:11;;;;;;;26.15;17.73;;;21.70;99.90;;;;;;4956336;28;20098;-46
2022/07/21 01:12:37;;;;;;;27.35;17.73;;;21.80;99.90;;;;;;4956474;29;20027;-47
2022/07/21 01:15:04;;;;;;;30.42;17.33;;;21.60;99.90;;;;;;4955220;28;20019;-50
2022/07/21 01:17:30;;;;;;;27.30;16.77;;;21.60;99.90;;;;;;4956277;28;20039;-47
2022/07/21 01:19:56;;;;;;;30.05;17.98;;;21.60;99.90;;;;;;4956461;28;20034;-48
2022/07/21 01:22:22;;;;;;;26.40;17.20;;;21.70;99.90;;;;;;4956376;28;20031;-47
2022/07/21 01:24:48;;;;;;;22.77;15.90;;;21.60;99.90;;;;;;4971262;28;20090;-47
2022/07/21 01:27:13;;;;;;;28.98;17.83;;;21.60;99.90;;;;;;4955279;28;20478;-47
2022/07/21 01:29:39;;;;;;;27.92;17.45;;;21.60;99.90;;;;;;4970945;28;20081;-46
2022/07/21 01:32:05;;;;;;;30.80;18.67;;;21.60;99.90;;;;;;4954888;28;20034;-47
2022/07/21 01:34:30;;;;;;;28.35;17.15;;;21.60;99.90;;;;;;4955990;29;20031;-47
2022/07/21 01:36:56;;;;;;;26.73;16.23;;;21.60;99.90;;;;;;4955326;28;20015;-47
2022/07/21 01:42:06;;;;;;;26.50;17.58;;;21.50;99.90;;;;;;4956639;29;20046;-48
2022/07/21 01:44:31;;;;;;;26.58;18.63;;;21.50;99.90;;;;;;4956044;28;20027;-47
2022/07/21 01:46:57;;;;;;;30.45;18.92;;;21.50;99.90;;;;;;4956234;28;20035;-47
2022/07/21 01:49:23;;;;;;;29.92;19.77;;;21.50;99.90;;;;;;4956084;28;20027;-46
2022/07/21 01:51:49;;;;;;;33.88;19.98;;;21.50;99.90;;;;;;4954875;28;20027;-48
2022/07/21 01:54:14;;;;;;;26.70;16.92;;;21.50;99.90;;;;;;4954709;28;20032;-46
2022/07/21 01:56:40;;;;;;;30.67;19.83;;;21.60;99.90;;;;;;4956985;28;20483;-51
2022/07/21 01:59:08;;;;;;;35.53;20.70;;;21.70;99.90;;;;;;4956416;28;20497;-54
2022/07/21 02:01:35;;;;;;;38.53;21.60;;;21.80;99.90;;;;;;4961909;28;20118;-48
2022/07/21 02:04:03;;;;;;;38.47;20.30;;;21.80;99.90;;;;;;4960390;28;20027;-52
2022/07/21 02:06:30;;;;;;;30.02;19.23;;;21.80;99.90;;;;;;4958090;28;20031;-51
2022/07/21 02:08:56;;;;;;;35.88;22.70;;;21.90;99.90;;;;;;4954494;28;20086;-54
2022/07/21 02:11:22;;;;;;;32.63;19.42;;;21.80;99.90;;;;;;4954891;28;20027;-51
2022/07/21 02:13:48;;;;;;;31.15;20.65;;;21.90;99.90;;;;;;4954671;29;20024;-51
2022/07/21 02:16:14;;;;;;;31.88;19.00;;;21.90;99.90;;;;;;4955819;28;20530;-50
2022/07/21 02:18:40;;;;;;;27.48;16.92;;;21.90;99.90;;;;;;4954727;28;20031;-49
2022/07/21 02:21:07;;;;;;;26.40;15.05;;;21.90;99.90;;;;;;4954773;28;20036;-51
2022/07/21 02:23:33;;;;;;;20.95;14.18;;;21.80;99.90;;;;;;4955488;28;20110;-50
2022/07/21 02:25:59;;;;;;;21.90;13.15;;;21.80;99.90;;;;;;4955423;29;20050;-52
2022/07/21 02:28:26;;;;;;;16.73;11.70;;;21.70;99.90;;;;;;4954639;28;20034;-48
2022/07/21 02:30:54;;;;;;;19.15;10.68;;;21.70;99.90;;;;;;4954619;28;20027;-48
2022/07/21 02:33:19;;;;;;;19.25;11.45;;;21.70;99.90;;;;;;4954260;28;20521;-50
2022/07/21 02:35:45;;;;;;;16.10;10.23;;;21.50;99.90;;;;;;4955217;28;20057;-48
2022/07/21 02:38:12;;;;;;;12.45;9.20;;;21.50;99.90;;;;;;4954125;28;20470;-48
2022/07/21 02:40:38;;;;;;;17.67;9.20;;;21.50;99.90;;;;;;4955249;28;20110;-51
2022/07/21 02:43:05;;;;;;;15.75;8.55;;;21.40;99.90;;;;;;4955125;28;20090;-52
2022/07/21 02:45:31;;;;;;;12.65;8.27;;;21.30;99.90;;;;;;4953973;28;20051;-52
2022/07/21 02:48:00;;;;;;;13.52;8.07;;;21.40;99.90;;;;;;4954058;29;20027;-51
2022/07/21 02:50:28;;;;;;;10.98;8.48;;;21.30;99.90;;;;;;4955188;28;20027;-48
2022/07/21 02:52:59;;;;;;;12.73;8.48;;;21.30;99.90;;;;;;4954433;28;20118;-54
2022/07/21 02:55:25;;;;;;;;;;;21.30;99.90;;;;;;4954814;28;20029;-49
2022/07/21 02:58:16;;;;;;;11.90;7.78;;;21.30;99.90;;;;;;4955046;29;19906;-49
2022/07/21 03:00:48;;;;;;;11.13;7.93;;;21.40;99.90;;;;;;4955033;28;20030;-47
2022/07/21 03:03:14;;;;;;;13.27;8.25;;;21.40;99.90;;;;;;4954624;28;20031;-54
2022/07/21 03:05:40;;;;;;;14.27;7.60;;;21.30;99.90;;;;;;4953707;28;20117;-50
2022/07/21 03:08:08;;;;;;;12.48;7.80;;;21.30;99.90;;;;;;4954628;28;20055;-48
2022/07/21 03:10:34;;;;;;;9.52;7.40;;;21.20;99.90;;;;;;4953906;28;20390;-55
2022/07/21 03:12:59;;;;;;;12.27;7.50;;;21.20;99.90;;;;;;4954897;28;20035;-49
2022/07/21 03:15:26;;;;;;;14.80;7.53;;;21.20;99.90;;;;;;4954750;28;20023;-49
2022/07/21 03:17:53;;;;;;;13.50;7.90;;;21.20;99.90;;;;;;4954926;28;20023;-53
2022/07/21 03:20:18;;;;;;;13.80;8.57;;;21.10;99.90;;;;;;4954381;28;20042;-50
2022/07/21 03:22:44;;;;;;;23.67;10.07;;;21.10;99.90;;;;;;4954707;28;20358;-48
2022/07/21 03:25:10;;;;;;;19.30;8.95;;;21.00;99.90;;;;;;4954029;28;20042;-49
2022/07/21 03:27:36;;;;;;;12.07;7.60;;;21.00;99.90;;;;;;4954946;29;20027;-55
2022/07/21 03:30:07;;;;;;;11.15;7.90;;;21.00;99.90;;;;;;4954779;28;20024;-55
2022/07/21 03:32:33;;;;;;;14.07;8.40;;;21.00;99.90;;;;;;4956396;28;20097;-51
2022/07/21 03:34:59;;;;;;;12.70;8.07;;;21.00;99.90;;;;;;4958217;28;20038;-54
2022/07/21 03:37:25;;;;;;;11.57;7.80;;;21.00;99.90;;;;;;4957377;28;20023;-49
2022/07/21 03:39:51;;;;;;;10.65;7.95;;;21.00;99.90;;;;;;4956837;28;20038;-50
2022/07/21 03:42:17;;;;;;;9.52;7.10;;;21.00;99.90;;;;;;4958147;29;20055;-53
2022/07/21 03:44:42;;;;;;;14.85;7.43;;;21.00;99.90;;;;;;4956937;28;20032;-55
2022/07/21 03:47:08;;;;;;;13.50;7.72;;;21.00;99.90;;;;;;4958056;28;20027;-52
2022/07/21 03:49:34;;;;;;;18.20;9.45;;;21.00;99.90;;;;;;4956755;28;20419;-54
2022/07/21 03:51:59;;;;;;;18.50;11.15;;;20.90;99.90;;;;;;4956770;29;20103;-55
2022/07/21 03:54:25;;;;;;;18.80;10.02;;;20.90;99.90;;;;;;4956665;28;20035;-55
2022/07/21 03:56:50;;;;;;;20.08;8.48;;;20.90;99.90;;;;;;4956680;28;20027;-55
2022/07/21 03:59:17;;;;;;;10.60;8.05;;;20.80;99.90;;;;;;4972770;28;20070;-55
2022/07/21 04:01:43;;;;;;;9.88;7.80;;;20.80;99.90;;;;;;4956613;28;20019;-55
2022/07/21 04:04:08;;;;;;;32.03;8.60;;;20.80;99.90;;;;;;4957755;28;20027;-54
2022/07/21 04:06:34;;;;;;;10.80;7.50;;;20.80;99.90;;;;;;4956650;28;20023;-50
2022/07/21 04:08:59;;;;;;;11.23;7.65;;;20.80;99.90;;;;;;4957081;28;20062;-51
2022/07/21 04:11:25;;;;;;;12.10;7.72;;;20.80;99.90;;;;;;4957635;28;20102;-49
2022/07/21 04:13:51;;;;;;;12.63;7.85;;;20.80;99.90;;;;;;4957804;28;20023;-49
2022/07/21 04:16:16;;;;;;;12.70;7.13;;;20.90;99.90;;;;;;4957297;28;20028;-51
2022/07/21 04:18:42;;;;;;;11.05;7.53;;;21.00;99.90;;;;;;4957501;28;20027;-51
2022/07/21 04:21:07;;;;;;;14.75;7.28;;;21.00;99.90;;;;;;4956220;28;20166;-49
2022/07/21 04:23:33;;;;;;;10.98;7.38;;;21.00;99.90;;;;;;4956304;29;20089;-52
2022/07/21 04:25:59;;;;;;;12.13;7.90;;;21.00;99.90;;;;;;4956187;28;20035;-49
2022/07/21 04:28:24;;;;;;;10.60;7.63;;;21.00;99.90;;;;;;4957319;28;20031;-53
2022/07/21 04:30:50;;;;;;;12.93;7.00;;;21.00;99.90;;;;;;4956069;28;20486;-48
2022/07/21 04:33:15;;;;;;;10.00;7.25;;;21.10;99.90;;;;;;4956441;28;20038;-50
2022/07/21 04:35:41;;;;;;;12.32;7.25;;;21.10;99.90;;;;;;4956025;29;20051;-49
2022/07/21 04:38:09;;;;;;;9.80;6.97;;;21.10;99.90;;;;;;4956238;28;20020;-49
2022/07/21 04:40:35;;;;;;;10.02;7.03;;;21.10;99.90;;;;;;4955971;28;20105;-50
2022/07/21 04:43:01;;;;;;;8.82;6.47;;;21.10;99.90;;;;;;4955826;28;20029;-48
2022/07/21 04:45:27;;;;;;;10.40;7.57;;;21.20;99.90;;;;;;4956698;28;20102;-48
2022/07/21 04:47:54;;;;;;;15.05;7.45;;;21.20;99.90;;;;;;4955920;28;20028;-48
2022/07/21 04:50:23;;;;;;;8.43;6.78;;;21.10;99.90;;;;;;4955831;28;20023;-50
2022/07/21 04:52:49;;;;;;;10.98;7.70;;;21.20;99.90;;;;;;4955674;28;20047;-49
2022/07/21 04:55:16;;;;;;;11.73;7.80;;;21.20;99.90;;;;;;4955942;28;20502;-48
2022/07/21 04:57:46;;;;;;;12.43;6.97;;;21.20;99.90;;;;;;4957309;28;20019;-51
2022/07/21 05:00:15;;;;;;;11.83;6.73;;;21.30;99.90;;;;;;4957244;28;20015;-47
2022/07/21 05:02:41;;;;;;;13.35;7.00;;;21.30;99.90;;;;;;4957103;28;20027;-48
2022/07/21 05:05:08;;;;;;;14.52;7.03;;;21.40;99.90;;;;;;4957206;28;20031;-49
2022/07/21 05:07:34;;;;;;;11.38;6.43;;;21.50;99.90;;;;;;4955412;28;20032;-55
2022/07/21 05:10:02;;;;;;;9.45;6.60;;;21.50;99.90;;;;;;4972367;28;20027;-55
2022/07/21 05:12:28;;;;;;;11.23;5.65;;;21.70;99.90;;;;;;4955578;28;20102;-55
2022/07/21 05:14:54;;;;;;;11.32;6.28;;;22.30;99.90;;;;;;4956415;29;20063;-53
2022/07/21 05:17:19;;;;;;;14.23;6.78;;;22.60;99.90;;;;;;4956372;28;20050;-53
2022/07/21 05:19:49;;;;;;;14.23;6.68;;;22.80;99.90;;;;;;4971161;28;20058;-50
2022/07/21 05:22:16;;;;;;;8.65;5.10;;;22.90;99.90;;;;;;4956754;29;20018;-48
2022/07/21 05:24:41;;;;;;;8.98;5.72;;;23.20;99.90;;;;;;4955168;28;20065;-52
2022/07/21 05:27:07;;;;;;;7.07;5.38;;;23.40;99.90;;;;;;4955120;28;20027;-50
2022/07/21 05:29:33;;;;;;;10.68;5.55;;;23.70;99.90;;;;;;4956185;28;20034;-54
2022/07/21 05:31:58;;;;;;;7.13;5.35;;;24.20;99.90;;;;;;4955090;28;20028;-51
2022/07/21 05:34:24;;;;;;;8.80;5.00;;;24.60;99.90;;;;;;4955278;28;20051;-49
2022/07/21 05:36:49;;;;;;;9.75;5.07;;;24.80;99.90;;;;;;4954815;28;20049;-54
2022/07/21 05:39:15;;;;;;;6.28;4.38;;;25.10;99.90;;;;;;4956090;28;20023;-51
2022/07/21 05:41:40;;;;;;;6.35;4.20;;;25.50;99.90;;;;;;4955563;28;20027;-52
2022/07/21 05:44:06;;;;;;;7.03;3.78;;;25.80;99.90;;;;;;4956042;28;20074;-49
2022/07/21 05:46:32;;;;;;;4.47;4.00;;;26.50;99.90;;;;;;4954801;29;20416;-55
2022/07/21 05:48:57;;;;;;;7.32;3.88;;;27.20;99.90;;;;;;4955913;29;20028;-52
2022/07/21 05:51:23;;;;;;;6.80;4.00;;;27.80;99.90;;;;;;4954897;28;20031;-54
2022/07/21 05:53:49;;;;;;;5.00;3.58;;;28.40;99.90;;;;;;4955801;28;20027;-54
2022/07/21 05:56:14;;;;;;;4.43;4.03;;;28.90;99.90;;;;;;4953989;28;20066;-55
2022/07/21 05:58:40;;;;;;;6.38;3.70;;;29.30;99.90;;;;;;4955782;29;20029;-55
2022/07/21 06:01:08;;;;;;;4.82;4.03;;;29.70;99.90;;;;;;4955664;28;20023;-55
2022/07/21 06:03:39;;;;;;;6.80;4.22;;;30.00;99.90;;;;;;4970686;28;20023;-53
2022/07/21 06:06:05;;;;;;;6.45;4.05;;;29.60;99.90;;;;;;4954763;28;20493;-54
2022/07/21 06:08:31;;;;;;;4.63;4.10;;;29.30;99.90;;;;;;4970853;28;20035;-54
2022/07/21 06:10:57;;;;;;;4.65;3.40;;;29.00;99.90;;;;;;4954520;28;20119;-53
2022/07/21 06:13:23;;;;;;;5.50;4.22;;;28.90;99.90;;;;;;4954227;28;20032;-52
2022/07/21 06:15:49;;;;;;;5.75;3.92;;;28.60;99.90;;;;;;4954636;28;20091;-55
2022/07/21 06:18:15;;;;;;;8.73;3.92;;;28.00;99.90;;;;;;4954256;28;20067;-55
2022/07/21 06:20:41;;;;;;;6.03;4.22;;;27.70;99.90;;;;;;4955437;28;20055;-52
2022/07/21 06:23:07;;;;;;;6.05;4.70;;;27.50;99.90;;;;;;4955461;28;20023;-48
2022/07/21 06:25:33;;;;;;;7.30;4.40;;;27.00;99.90;;;;;;4954352;28;20091;-54
2022/07/21 06:27:59;;;;;;;5.45;4.30;;;26.80;99.90;;;;;;4955328;28;20026;-54
2022/07/21 06:30:24;;;;;;;5.05;4.25;;;26.70;99.90;;;;;;4955312;28;20383;-53
2022/07/21 06:32:50;;;;;;;4.22;3.75;;;26.90;99.90;;;;;;4954229;28;20028;-55
2022/07/21 06:35:16;;;;;;;5.22;3.95;;;27.10;99.90;;;;;;4955650;29;20023;-55
2022/07/21 06:37:47;;;;;;;5.47;3.83;;;27.50;99.90;;;;;;4955968;29;20366;-54
2022/07/21 06:40:13;;;;;;;5.50;3.30;;;28.70;99.90;;;;;;4954047;28;20027;-55
2022/07/21 06:42:39;;;;;;;4.55;3.60;;;29.40;99.90;;;;;;4955494;28;20035;-54
2022/07/21 06:45:05;;;;;;;4.45;4.00;;;29.80;99.90;;;;;;4970945;28;20028;-52
2022/07/21 06:47:31;;;;;;;4.93;3.90;;;29.90;99.90;;;;;;4954030;28;20045;-54
2022/07/21 06:50:02;;;;;;;6.82;4.80;;;29.50;99.90;;;;;;4955369;28;20100;-55
2022/07/21 06:52:30;;;;;;;4.72;4.20;;;29.10;99.90;;;;;;4954007;28;20031;-55
2022/07/21 06:54:56;;;;;;;6.03;3.70;;;28.80;99.90;;;;;;4953847;28;20039;-54
2022/07/21 06:57:22;;;;;;;9.18;3.97;;;28.40;99.90;;;;;;4953800;28;20533;-53
2022/07/21 06:59:47;;;;;;;6.95;4.55;;;28.10;99.90;;;;;;4954515;28;20106;-53
2022/07/21 07:02:13;;;;;;;7.28;4.30;;;28.00;99.90;;;;;;4954172;29;20055;-51
2022/07/21 07:04:39;;;;;;;7.80;4.13;;;28.20;99.90;;;;;;4955122;28;20023;-51
2022/07/21 07:07:04;;;;;;;7.03;4.50;;;28.60;99.90;;;;;;4956694;28;20023;-51
2022/07/21 07:09:30;;;;;;;4.90;4.35;;;28.60;99.90;;;;;;4958901;28;20035;-55
2022/07/21 07:12:03;;;;;;;9.93;4.90;;;28.50;99.90;;;;;;4957961;28;20082;-52
2022/07/21 07:14:33;;;;;;;5.20;4.65;;;28.60;99.90;;;;;;4958431;28;20034;-51
2022/07/21 07:17:00;;;;;;;4.97;4.47;;;29.10;99.90;;;;;;4958967;28;20070;-52
2022/07/21 07:19:26;;;;;;;6.63;4.30;;;30.10;99.90;;;;;;4958799;28;20023;-52
2022/07/21 07:21:52;;;;;;;7.55;5.32;;;31.10;99.90;;;;;;4959628;28;20050;-52
2022/07/21 07:24:18;;;;;;;5.57;5.07;;;32.20;99.90;;;;;;4957673;29;20042;-51
2022/07/21 07:26:44;;;;;;;7.40;4.72;;;32.70;99.90;;;;;;4958461;28;20027;-54
2022/07/21 07:29:10;;;;;;;8.13;5.25;;;33.40;99.90;;;;;;4958402;28;20394;-52
2022/07/21 07:31:36;;;;;;;5.05;4.63;;;34.00;99.90;;;;;;4958385;28;20105;-53
2022/07/21 07:34:01;;;;;;;7.07;5.00;;;34.30;99.90;;;;;;4958244;29;20079;-50
2022/07/21 07:36:28;;;;;;;6.25;5.28;;;33.80;99.90;;;;;;4957339;29;20028;-51
2022/07/21 07:38:55;;;;;;;6.60;5.55;;;33.00;99.90;;;;;;4957151;28;20106;-49
2022/07/21 07:41:23;;;;;;;7.90;5.55;;;31.80;99.90;;;;;;4957018;28;20038;-54
2022/07/21 07:43:51;;;;;;;8.55;5.43;;;31.20;99.90;;;;;;4973227;28;20030;-49
2022/07/21 07:46:17;;;;;;;6.32;5.50;;;30.60;99.90;;;;;;4958432;28;20024;-49
2022/07/21 07:48:43;;;;;;;4.70;4.20;;;30.20;99.90;;;;;;4957313;29;20038;-55
2022/07/21 07:51:10;;;;;;;7.68;5.10;;;30.30;99.90;;;;;;4972906;28;20027;-51
2022/07/21 07:53:46;;;;;;;8.05;4.80;;;30.70;99.90;;;;;;4958003;28;20031;-52
2022/07/21 07:56:12;;;;;;;5.60;4.18;;;30.80;99.90;;;;;;4958068;28;20475;-56
2022/07/21 07:58:38;;;;;;;4.60;4.07;;;31.20;99.90;;;;;;4973608;28;20030;-55
2022/07/21 08:01:05;;;;;;;5.22;3.90;;;31.90;99.90;;;;;;4956655;28;20019;-54
2022/07/21 08:03:31;;;;;;;4.78;4.25;;;32.50;99.90;;;;;;4957880;28;20101;-56
2022/07/21 08:06:03;;;;;;;4.82;4.43;;;32.80;99.90;;;;;;4960049;28;20023;-56
2022/07/21 08:08:30;;;;;;;7.28;4.43;;;32.80;99.90;;;;;;4960041;29;20028;-55
2022/07/21 08:10:56;;;;;;;5.40;4.15;;;32.50;99.90;;;;;;4956806;28;20038;-56
2022/07/21 08:13:22;;;;;;;7.13;4.60;;;32.60;99.90;;;;;;4958278;28;20031;-55
2022/07/21 08:15:49;;;;;;;7.97;4.20;;;33.20;99.90;;;;;;4956421;28;20471;-55
2022/07/21 08:18:16;;;;;;;7.38;4.55;;;33.60;98.70;;;;;;4956774;28;20023;-55
2022/07/21 08:20:42;;;;;;;5.95;4.35;;;33.50;98.80;;;;;;4957583;28;20019;-56
2022/07/21 08:23:08;;;;;;;11.50;5.25;;;33.60;98.20;;;;;;4957445;28;20379;-53
2022/07/21 08:25:34;;;;;;;7.25;4.35;;;33.60;98.70;;;;;;4956223;28;20037;-55
2022/07/21 08:28:00;;;;;;;5.63;4.00;;;33.40;98.60;;;;;;4956798;28;20031;-55
2022/07/21 08:30:25;;;;;;;6.68;4.03;;;33.20;98.60;;;;;;4972581;28;20023;-49
2022/07/21 08:32:51;;;;;;;7.07;4.25;;;32.90;98.70;;;;;;4956178;29;20023;-54
2022/07/21 08:35:17;;;;;;;6.47;4.13;;;32.90;97.80;;;;;;4957290;29;20031;-54
2022/07/21 08:37:56;;;;;;;4.47;4.07;;;33.70;98.00;;;;;;4956021;29;20030;-55
2022/07/21 08:40:26;;;;;;;4.75;4.25;;;33.80;97.50;;;;;;4955916;28;20474;-54
2022/07/21 08:42:53;;;;;;;6.85;4.15;;;33.40;96.90;;;;;;4972159;28;20025;-55
2022/07/21 08:45:20;;;;;;;6.68;4.80;;;32.70;97.80;;;;;;4972153;28;20023;-54
2022/07/21 08:47:46;;;;;;;5.25;4.38;;;32.00;98.20;;;;;;4957128;28;20027;-55
2022/07/21 08:50:11;;;;;;;5.28;4.10;;;31.20;99.00;;;;;;4955746;28;20110;-54
2022/07/21 08:52:37;;;;;;;5.82;5.22;;;30.60;99.90;;;;;;4955774;28;20030;-55
2022/07/21 08:55:03;;;;;;;5.50;5.00;;;30.20;99.90;;;;;;4957143;28;20032;-55
2022/07/21 08:57:29;;;;;;;5.13;4.63;;;29.90;99.90;;;;;;4956934;28;20039;-53
2022/07/21 08:59:55;;;;;;;5.28;4.30;;;29.80;99.90;;;;;;4971677;28;20023;-55
2022/07/21 09:02:29;;;;;;;6.38;4.00;;;30.40;99.90;;;;;;4971947;28;20030;-55
2022/07/21 09:04:54;;;;;;;8.05;4.07;;;32.00;99.90;;;;;;4955453;28;20122;-56
2022/07/21 09:07:22;;;;;;;9.07;5.35;;;33.10;99.30;;;;;;4957029;28;20106;-52
2022/07/21 09:09:56;;;;;;;5.20;3.95;;;33.40;97.20;;;;;;4956535;28;20115;-54
2022/07/21 09:12:21;;;;;;;11.63;4.60;;;32.80;96.30;;;;;;4957178;28;20406;-54
2022/07/21 09:14:48;;;;;;;6.70;4.35;;;32.50;97.00;;;;;;4956411;28;20498;-55
2022/07/21 09:17:16;;;;;;;7.10;4.20;;;31.60;97.60;;;;;;4955947;28;20027;-57
2022/07/21 09:19:45;;;;;;;4.35;3.50;;;31.10;98.50;;;;;;4971528;28;20042;-55
2022/07/21 09:22:18;;;;;;;4.05;3.65;;;31.70;97.50;;;;;;4956038;28;20073;-54
2022/07/21 09:24:53;;;;;;;5.82;3.92;;;32.60;97.00;;;;;;4955299;28;20097;-56
2022/07/21 09:27:22;;;;;;;5.15;3.35;;;33.50;95.10;;;;;;4956649;29;20467;-55
2022/07/21 09:29:47;;;;;;;8.40;3.53;;;33.60;94.90;;;;;;4955574;28;20106;-56
2022/07/21 09:32:32;;;;;;;4.53;3.20;;;34.10;94.50;;;;;;4956281;29;20478;-57
2022/07/21 09:35:05;;;;;;;3.60;3.30;;;34.70;95.10;;;;;;4956230;29;20059;-58
2022/07/21 09:37:32;;;;;;;4.20;3.40;;;35.90;92.40;;;;;;4954860;28;20031;-58
2022/07/21 09:40:03;;;;;;;3.72;3.42;;;36.70;91.00;;;;;;4956248;28;20113;-58
2022/07/21 09:42:31;;;;;;;4.57;3.17;;;36.70;89.80;;;;;;4956463;28;20150;-56
2022/07/21 09:45:11;;;;;;;3.22;2.92;;;37.50;87.20;;;;;;4956079;28;20037;-57
2022/07/21 09:47:38;;;;;;;;;;;38.70;82.20;;;;;;4955442;28;20486;-56
2022/07/21 09:50:06;;;;;;;3.65;3.35;;;39.40;80.80;;;;;;4955882;28;19907;-58
2022/07/21 09:52:39;;;;;;;3.75;3.45;;;40.10;77.20;;;;;;4954955;29;20114;-55
2022/07/21 09:55:10;;;;;;;3.20;3.00;;;39.80;75.60;;;;;;4954907;29;20023;-56
2022/07/21 09:57:36;;;;;;;6.10;3.00;;;39.70;74.70;;;;;;4956118;29;20042;-58
2022/07/21 10:00:05;;;;;;;3.22;2.88;;;40.20;73.50;;;;;;4970670;28;20054;-58
2022/07/21 10:02:33;;;;;;;3.70;3.28;;;40.30;73.60;;;;;;4954570;28;20031;-55
2022/07/21 10:05:08;;;;;;;5.30;3.17;;;40.50;70.20;;;;;;4954760;28;20112;-54
2022/07/21 10:07:38;;;;;;;4.85;3.58;;;40.60;69.80;;;;;;4955889;29;20070;-55
2022/07/21 10:10:03;;;;;;;;;;;40.80;69.60;;;;;;4955103;28;20121;-52
2022/07/21 10:12:30;;;;;;;6.70;3.28;;;41.30;68.90;;;;;;4955734;29;20361;-55
2022/07/21 10:14:55;;;;;;;3.30;3.00;;;40.90;67.20;;;;;;4955531;28;20027;-53
2022/07/21 10:17:23;;;;;;;3.38;3.13;;;39.70;66.70;;;;;;4955524;29;20086;-56
2022/07/21 10:19:56;;;;;;;4.18;3.25;;;38.30;69.20;;;;;;4955078;28;20034;-53
2022/07/21 10:22:58;;;;;;;4.80;3.80;;;36.60;71.00;;;;;;4954366;28;20031;-56
2022/07/21 10:25:24;;;;;;;3.60;3.30;;;36.00;74.90;;;;;;4954626;28;20031;-54
2022/07/21 10:28:23;;;;;;;5.22;3.08;;;35.60;74.10;;;;;;4956071;28;20037;-54
2022/07/21 10:30:51;;;;;;;4.45;3.10;;;34.60;74.50;;;;;;4955384;28;20050;-53
2022/07/21 10:33:19;;;;;;;8.70;3.17;;;34.00;76.20;;;;;;4954267;28;20024;-53
2022/07/21 10:35:50;;;;;;;3.15;2.90;;;33.40;78.10;;;;;;4954378;28;20027;-53
2022/07/21 10:38:32;;;;;;;3.22;2.90;;;33.10;79.40;;;;;;4954726;28;20043;-56
2022/07/21 10:41:00;;;;;;;4.78;3.22;;;32.80;80.10;;;;;;4970539;28;20027;-54
2022/07/21 10:43:25;;;;;;;4.93;3.20;;;32.80;79.80;;;;;;4961289;28;20398;-54
2022/07/21 10:45:54;;;;;;;2.92;2.72;;;32.90;80.00;;;;;;4960372;28;20031;-54
2022/07/21 10:48:40;;;;;;;3.75;3.30;;;32.60;81.80;;;;;;4961860;28;20066;-54
2022/07/21 10:51:10;;;;;;;3.28;2.97;;;32.30;80.70;;;;;;4960391;28;20075;-52
2022/07/21 10:53:37;;;;;;;6.22;3.40;;;32.00;81.20;;;;;;4961498;28;20035;-52
2022/07/21 10:56:03;;;;;;;3.75;3.33;;;31.60;83.20;;;;;;4962045;28;20059;-55
2022/07/21 10:58:34;;;;;;;5.35;3.53;;;31.40;83.10;;;;;;4960561;28;20035;-55
2022/07/21 11:01:01;;;;;;;;;;;31.20;83.50;;;;;;4961984;28;20031;-56
2022/07/21 11:03:29;;;;;;;4.90;3.30;;;30.90;83.90;;;;;;4961454;28;19906;-58
2022/07/21 11:06:09;;;;;;;5.03;3.40;;;31.00;85.80;;;;;;4960524;28;20031;-55
2022/07/21 11:08:36;;;;;;;4.38;3.50;;;31.10;85.20;;;;;;4961523;28;20038;-58
2022/07/21 11:11:18;;;;;;;3.72;3.25;;;31.10;85.40;;;;;;4961319;28;20039;-56
2022/07/21 11:14:20;;;;;;;3.67;3.25;;;31.30;85.80;;;;;;4960379;29;20441;-58
2022/07/21 11:16:49;;;;;;;3.38;2.80;;;31.50;85.40;;;;;;4943619;29;20027;-57
2022/07/21 11:19:33;;;;;;;3.35;3.05;;;31.60;87.00;;;;;;4961080;28;20059;-57
2022/07/21 11:22:04;;;;;;;6.00;2.85;;;31.80;86.80;;;;;;4960085;29;20470;-57
2022/07/21 11:24:31;;;;;;;8.43;3.50;;;31.80;84.80;;;;;;4960403;29;20462;-57
2022/07/21 11:27:05;;;;;;;4.15;2.90;;;31.80;84.40;;;;;;4976380;28;20099;-58
2022/07/21 11:29:32;;;;;;;3.45;3.08;;;31.50;85.90;;;;;;4959882;28;20135;-58
2022/07/21 11:32:01;;;;;;;3.85;2.80;;;31.30;85.40;;;;;;4961286;28;20058;-56
2022/07/21 11:34:41;;;;;;;3.90;2.80;;;31.40;86.80;;;;;;4960185;28;20174;-54
2022/07/21 11:37:08;;;;;;;;;;;31.30;84.70;;;;;;4960492;28;20024;-52
2022/07/21 11:39:35;;;;;;;3.92;3.20;;;31.30;86.10;;;;;;4961094;28;19961;-55
2022/07/21 11:42:10;;;;;;;4.10;2.92;;;31.20;85.80;;;;;;4961435;28;20032;-58
2022/07/21 11:44:36;;;;;;;4.32;3.17;;;31.10;86.00;;;;;;4976690;28;20031;-52
2022/07/21 11:47:05;;;;;;;4.78;3.22;;;30.90;85.70;;;;;;4961123;28;20054;-54
2022/07/21 11:49:31;;;;;;;4.18;3.22;;;30.80;86.20;;;;;;4975841;28;20023;-57
2022/07/21 11:52:07;;;;;;;3.30;2.60;;;30.80;86.70;;;;;;4960143;28;20478;-58
2022/07/21 11:54:45;;;;;;;5.25;3.28;;;30.70;87.90;;;;;;4957250;28;20023;-56
2022/07/21 11:57:12;;;;;;;4.68;3.10;;;30.70;88.30;;;;;;4957700;28;20030;-58
2022/07/21 11:59:40;;;;;;;5.35;2.80;;;30.70;87.50;;;;;;4956583;28;20028;-57
2022/07/21 12:02:12;;;;;;;3.63;3.30;;;30.60;88.80;;;;;;4957821;28;20029;-53
2022/07/21 12:04:39;;;;;;;4.05;3.20;;;30.60;88.10;;;;;;4958011;28;20501;-53
2022/07/21 12:07:10;;;;;;;3.22;3.00;;;30.40;88.50;;;;;;4956628;29;20552;-56
2022/07/21 12:09:37;;;;;;;3.20;2.90;;;30.20;87.00;;;;;;4956910;28;20038;-55
2022/07/21 12:12:03;;;;;;;4.43;2.72;;;30.20;88.00;;;;;;4957752;28;20459;-57
2022/07/21 12:14:44;;;;;;;4.13;3.20;;;30.20;89.70;;;;;;4956473;28;20102;-57
2022/07/21 12:17:10;;;;;;;5.32;2.38;;;30.30;88.90;;;;;;4957735;28;20026;-53
2022/07/21 12:19:36;;;;;;;5.28;2.30;;;30.40;87.90;;;;;;4956300;28;20086;-57
2022/07/21 12:22:02;;;;;;;2.63;2.33;;;30.40;89.00;;;;;;4956616;28;20482;-55
2022/07/21 12:24:52;;;;;;;2.75;2.55;;;30.30;87.00;;;;;;4957383;28;20097;-56
2022/07/21 12:27:18;;;;;;;3.13;2.53;;;30.30;87.00;;;;;;4972613;28;20027;-57
2022/07/21 12:29:44;;;;;;;6.65;2.80;;;30.30;87.20;;;;;;4957717;28;20027;-55
2022/07/21 12:32:10;;;;;;;4.18;2.45;;;30.40;86.10;;;;;;4957339;28;20398;-59
2022/07/21 12:34:52;;;;;;;5.53;2.50;;;30.50;86.00;;;;;;4957229;29;20474;-59
2022/07/21 12:37:18;;;;;;;3.65;2.30;;;30.60;85.60;;;;;;4957351;28;20078;-58
2022/07/21 12:39:59;;;;;;;2.67;2.22;;;30.80;86.70;;;;;;4955936;28;20027;-59
2022/07/21 12:42:43;;;;;;;2.85;2.47;;;30.80;84.50;;;;;;4972111;28;20054;-59
2022/07/21 12:45:20;;;;;;;4.45;2.50;;;30.60;83.70;;;;;;4971861;28;20027;-59
2022/07/21 12:48:11;;;;;;;3.63;2.85;;;30.40;83.60;;;;;;4971732;28;20123;-60
2022/07/21 12:50:40;;;;;;;2.85;2.50;;;30.30;85.20;;;;;;4956420;28;20034;-59